Time;durP1;ratioP1;P1;durP2;ratioP2;P2;SDS_P1;SDS_P2;PMS_P1;PMS_P2;Temp;Humidity;BMP_temperature;BMP_pressure;BME280_temperature;BME280_humidity;BME280_pressure;Samples;Min_cycle;Max_cycle;Signal;HPM_P1;HPM_P2
2022/05/13 00:01:15;;;;;;;3.70;2.97;;;13.30;99.90;;;;;;5070391;28;20446;-42
2022/05/13 00:03:41;;;;;;;5.03;2.90;;;13.30;99.90;;;;;;5070915;28;20930;-42
2022/05/13 00:06:07;;;;;;;4.10;3.40;;;13.30;99.90;;;;;;5066265;28;20177;-42
2022/05/13 00:08:33;;;;;;;3.17;2.60;;;13.30;99.90;;;;;;5069295;28;20181;-42
2022/05/13 00:11:00;;;;;;;3.33;3.03;;;13.40;99.90;;;;;;5069865;28;20498;-42
2022/05/13 00:13:26;;;;;;;3.70;2.67;;;13.50;99.90;;;;;;5070425;28;20466;-42
2022/05/13 00:15:52;;;;;;;5.03;2.73;;;13.50;99.90;;;;;;5069344;28;20430;-42
2022/05/13 00:18:18;;;;;;;4.10;2.87;;;13.50;99.90;;;;;;5070381;28;20653;-42
2022/05/13 00:20:44;;;;;;;3.80;3.30;;;13.50;99.90;;;;;;5067156;28;20463;-42
2022/05/13 00:23:10;;;;;;;4.93;3.10;;;13.50;99.90;;;;;;5063377;28;21057;-42
2022/05/13 00:25:37;;;;;;;3.23;2.70;;;13.50;99.90;;;;;;5070015;28;20541;-42
2022/05/13 00:28:04;;;;;;;7.17;3.10;;;13.50;99.90;;;;;;5070150;28;20508;-42
2022/05/13 00:30:34;;;;;;;4.40;3.13;;;13.40;99.90;;;;;;5069660;28;20443;-42
2022/05/13 00:33:00;;;;;;;4.70;2.40;;;13.40;99.90;;;;;;5069985;28;20461;-42
2022/05/13 00:35:26;;;;;;;3.70;2.60;;;13.20;99.90;;;;;;5069310;28;20510;-42
2022/05/13 00:37:52;;;;;;;3.37;2.67;;;13.20;99.90;;;;;;5058966;28;20193;-42
2022/05/13 00:40:20;;;;;;;2.83;2.40;;;13.10;99.90;;;;;;5070300;28;20423;-42
2022/05/13 00:42:46;;;;;;;3.13;2.77;;;13.00;99.90;;;;;;5070050;28;20181;-42
2022/05/13 00:45:14;;;;;;;2.90;1.93;;;13.10;99.90;;;;;;5070011;28;20787;-42
2022/05/13 00:47:44;;;;;;;4.50;2.47;;;13.00;99.90;;;;;;5069874;28;20447;-42
2022/05/13 00:50:12;;;;;;;3.00;2.60;;;13.00;99.90;;;;;;5068207;28;20431;-42
2022/05/13 00:52:42;;;;;;;3.37;2.83;;;12.90;99.90;;;;;;5056191;28;21005;-42
2022/05/13 00:55:14;;;;;;;6.67;2.90;;;12.90;99.90;;;;;;5069364;28;20469;-42
2022/05/13 00:57:41;;;;;;;6.40;3.37;;;12.80;99.90;;;;;;5068329;28;20431;-42
2022/05/13 01:00:11;;;;;;;2.97;2.60;;;12.70;99.90;;;;;;5068882;28;20415;-42
2022/05/13 01:02:38;;;;;;;6.27;2.67;;;12.70;99.90;;;;;;5069803;28;20762;-42
2022/05/13 01:05:05;;;;;;;4.53;2.80;;;12.70;99.90;;;;;;5069641;28;20427;-42
2022/05/13 01:07:32;;;;;;;7.10;3.47;;;12.70;99.90;;;;;;5057222;28;20432;-42
2022/05/13 01:10:01;;;;;;;5.13;2.63;;;12.70;99.90;;;;;;5068781;28;20430;-42
2022/05/13 01:12:34;;;;;;;5.27;2.77;;;12.60;99.90;;;;;;5063294;28;21025;-42
2022/05/13 01:15:04;;;;;;;5.40;3.27;;;12.60;99.90;;;;;;5069401;28;20423;-42
2022/05/13 01:20:21;;;;;;;4.17;2.53;;;12.60;99.90;;;;;;5068727;28;20433;-42
2022/05/13 01:22:50;;;;;;;3.70;2.80;;;12.50;99.90;;;;;;5060214;28;20530;-42
2022/05/13 01:25:19;;;;;;;6.80;3.10;;;12.50;99.90;;;;;;5069055;28;20469;-42
2022/05/13 01:27:47;;;;;;;5.13;3.17;;;12.50;99.90;;;;;;5069149;28;20798;-42
2022/05/13 01:30:16;;;;;;;4.07;2.60;;;12.70;99.90;;;;;;5083862;28;20519;-43
2022/05/13 01:32:42;;;;;;;5.00;3.17;;;12.80;99.90;;;;;;5071637;28;20469;-42
2022/05/13 01:35:08;;;;;;;5.10;2.87;;;12.80;99.90;;;;;;5069149;28;20510;-42
2022/05/13 01:37:34;;;;;;;3.27;2.97;;;12.80;99.90;;;;;;5059215;28;20829;-43
2022/05/13 01:40:01;;;;;;;3.90;2.93;;;12.70;99.90;;;;;;5065697;28;20447;-42
2022/05/13 01:42:28;;;;;;;4.87;3.17;;;12.70;99.90;;;;;;5068869;28;20193;-42
2022/05/13 01:44:54;;;;;;;6.23;2.97;;;12.60;99.90;;;;;;5068899;28;20522;-42
2022/05/13 01:47:20;;;;;;;7.00;3.43;;;12.50;99.90;;;;;;5067191;28;20506;-42
2022/05/13 01:49:46;;;;;;;5.80;3.17;;;12.50;99.90;;;;;;5067655;28;20238;-42
2022/05/13 01:52:11;;;;;;;4.73;2.93;;;12.50;99.90;;;;;;5059577;28;20205;-42
2022/05/13 01:54:37;;;;;;;3.67;3.10;;;12.50;99.90;;;;;;5065530;28;20205;-43
2022/05/13 01:57:04;;;;;;;7.03;3.87;;;12.70;99.90;;;;;;5068705;28;20215;-42
2022/05/13 01:59:29;;;;;;;6.03;3.37;;;12.80;99.90;;;;;;5067250;28;20253;-42
2022/05/13 02:01:56;;;;;;;9.37;3.73;;;12.80;99.90;;;;;;5066770;28;20426;-42
2022/05/13 02:04:21;;;;;;;6.57;3.70;;;12.90;99.90;;;;;;5068743;28;20953;-43
2022/05/13 02:06:47;;;;;;;6.37;3.20;;;12.90;99.90;;;;;;5063339;28;20189;-42
2022/05/13 02:09:13;;;;;;;5.23;3.60;;;12.80;99.90;;;;;;5062497;28;20174;-42
2022/05/13 02:11:39;;;;;;;4.73;3.23;;;12.80;99.90;;;;;;5068089;28;20515;-42
2022/05/13 02:14:05;;;;;;;4.00;3.20;;;12.60;99.90;;;;;;5068371;28;20209;-42
2022/05/13 02:16:31;;;;;;;4.40;3.27;;;12.60;99.90;;;;;;5068667;28;20462;-42
2022/05/13 02:18:57;;;;;;;3.60;3.10;;;12.50;99.90;;;;;;5068640;28;20458;-42
2022/05/13 02:21:24;;;;;;;5.60;4.50;;;12.60;99.90;;;;;;5065649;28;20651;-42
2022/05/13 02:23:50;;;;;;;3.90;3.47;;;12.40;99.90;;;;;;5063497;28;20192;-42
2022/05/13 02:26:17;;;;;;;7.60;4.07;;;12.40;99.90;;;;;;5068603;28;20429;-43
2022/05/13 02:28:44;;;;;;;5.10;3.30;;;12.40;99.90;;;;;;5068172;28;20921;-42
2022/05/13 02:31:11;;;;;;;5.53;3.23;;;12.40;99.90;;;;;;5068072;28;20443;-42
2022/05/13 02:33:38;;;;;;;6.93;3.53;;;12.30;99.90;;;;;;5067117;28;20459;-42
2022/05/13 02:36:04;;;;;;;5.07;3.37;;;12.40;99.90;;;;;;5068789;28;20842;-42
2022/05/13 02:38:31;;;;;;;3.60;3.30;;;12.30;99.90;;;;;;5058376;28;20430;-42
2022/05/13 02:41:11;;;;;;;4.17;2.90;;;12.30;99.90;;;;;;5066529;28;20497;-42
2022/05/13 02:43:45;;;;;;;3.30;2.70;;;12.30;99.90;;;;;;5068322;28;20419;-42
2022/05/13 02:46:13;;;;;;;5.97;2.70;;;12.30;99.90;;;;;;5068591;28;21334;-42
2022/05/13 02:48:38;;;;;;;4.00;2.93;;;12.10;99.90;;;;;;5066852;28;20449;-42
2022/05/13 02:51:05;;;;;;;4.23;3.10;;;12.10;99.90;;;;;;5067009;28;21113;-42
2022/05/13 02:53:31;;;;;;;8.97;3.20;;;12.10;99.90;;;;;;5057240;28;20683;-42
2022/05/13 02:55:56;;;;;;;5.63;3.20;;;12.10;99.90;;;;;;5068003;28;20464;-42
2022/05/13 02:58:22;;;;;;;6.30;3.43;;;12.10;99.90;;;;;;5085193;28;20185;-42
2022/05/13 03:00:48;;;;;;;5.30;3.50;;;12.00;99.90;;;;;;5071356;28;20200;-42
2022/05/13 03:03:14;;;;;;;5.30;3.27;;;12.00;99.90;;;;;;5071958;28;20193;-42
2022/05/13 03:05:40;;;;;;;7.53;3.23;;;11.90;99.90;;;;;;5071769;28;20238;-42
2022/05/13 03:08:07;;;;;;;5.17;3.27;;;11.90;99.90;;;;;;5061729;28;20941;-43
2022/05/13 03:10:36;;;;;;;4.50;3.17;;;11.90;99.90;;;;;;5067274;28;20423;-42
2022/05/13 03:13:03;;;;;;;3.83;3.23;;;11.90;99.90;;;;;;5078724;28;20465;-43
2022/05/13 03:15:29;;;;;;;5.20;3.60;;;11.90;99.90;;;;;;5090184;28;20414;-41
2022/05/13 03:17:55;;;;;;;6.10;3.53;;;11.90;99.90;;;;;;5090824;28;20519;-43
2022/05/13 03:20:22;;;;;;;5.60;3.50;;;12.00;99.90;;;;;;5091271;28;20647;-43
2022/05/13 03:22:49;;;;;;;5.47;4.07;;;12.00;99.90;;;;;;5066973;28;20452;-42
2022/05/13 03:25:15;;;;;;;5.83;3.50;;;12.10;99.90;;;;;;5065906;28;20838;-42
2022/05/13 03:27:41;;;;;;;8.17;3.57;;;12.10;99.90;;;;;;5071423;28;20431;-42
2022/05/13 03:30:10;;;;;;;4.60;2.40;;;12.10;99.90;;;;;;5069856;28;20435;-42
2022/05/13 03:32:36;;;;;;;4.97;2.97;;;12.10;99.90;;;;;;5078074;28;20873;-42
2022/05/13 03:35:04;;;;;;;6.17;3.43;;;12.10;99.90;;;;;;5091862;28;20446;-42
2022/05/13 03:37:30;;;;;;;4.97;2.77;;;12.20;99.90;;;;;;5079348;28;20264;-42
2022/05/13 03:39:55;;;;;;;5.60;3.40;;;12.20;99.90;;;;;;5070468;28;20511;-42
2022/05/13 03:42:22;;;;;;;5.80;3.00;;;12.20;99.90;;;;;;5071155;28;20192;-41
2022/05/13 03:44:49;;;;;;;6.80;3.63;;;12.20;99.90;;;;;;5071319;28;20189;-41
2022/05/13 03:47:15;;;;;;;7.43;3.10;;;12.20;99.90;;;;;;5071122;28;20419;-43
2022/05/13 03:49:42;;;;;;;3.80;3.43;;;12.10;99.90;;;;;;5069836;28;20481;-41
2022/05/13 03:52:08;;;;;;;4.60;3.10;;;12.00;99.90;;;;;;5070101;28;20184;-42
2022/05/13 03:54:34;;;;;;;4.50;2.90;;;12.00;99.90;;;;;;5064030;28;20415;-43
2022/05/13 03:57:00;;;;;;;3.43;2.73;;;12.10;99.90;;;;;;5070762;28;20793;-42
2022/05/13 03:59:26;;;;;;;9.53;2.70;;;12.10;99.90;;;;;;5086365;28;20219;-42
2022/05/13 04:01:52;;;;;;;4.63;3.23;;;12.10;99.90;;;;;;5069694;28;20543;-41
2022/05/13 04:04:21;;;;;;;5.23;3.10;;;12.10;99.90;;;;;;5070789;28;20510;-43
2022/05/13 04:09:32;;;;;;;3.87;2.60;;;12.00;99.90;;;;;;5059040;28;20435;-42
2022/05/13 04:17:26;;;;;;;3.90;2.53;;;11.80;99.90;;;;;;5070568;28;20436;-42
2022/05/13 04:19:52;;;;;;;4.30;2.60;;;11.90;99.90;;;;;;5068615;28;20415;-42
2022/05/13 04:22:17;;;;;;;6.63;2.60;;;11.90;99.90;;;;;;5070447;28;20211;-42
2022/05/13 04:24:43;;;;;;;4.47;2.47;;;11.90;99.90;;;;;;5061479;28;20279;-42
2022/05/13 04:27:09;;;;;;;6.90;2.07;;;11.90;99.90;;;;;;5070429;28;20275;-42
2022/05/13 04:29:37;;;;;;;3.40;2.20;;;11.90;99.90;;;;;;5068220;28;20220;-43
2022/05/13 04:32:03;;;;;;;3.97;2.67;;;11.90;99.90;;;;;;5070174;28;20276;-42
2022/05/13 04:34:29;;;;;;;6.57;2.60;;;11.90;99.90;;;;;;5069971;28;20459;-42
2022/05/13 04:36:54;;;;;;;4.90;2.40;;;11.90;99.90;;;;;;5070288;28;20446;-42
2022/05/13 04:39:20;;;;;;;4.37;2.10;;;11.90;99.90;;;;;;5063071;28;20221;-42
2022/05/13 04:44:30;;;;;;;7.83;2.73;;;11.80;99.90;;;;;;5069918;28;20272;-42
2022/05/13 04:46:55;;;;;;;3.73;2.40;;;11.90;99.90;;;;;;5069840;28;20519;-42
2022/05/13 04:49:21;;;;;;;6.10;2.23;;;11.80;99.90;;;;;;5066306;28;20276;-42
2022/05/13 04:51:47;;;;;;;4.67;2.33;;;12.10;99.90;;;;;;5064121;28;20197;-42
2022/05/13 04:54:12;;;;;;;6.33;2.63;;;12.00;99.90;;;;;;5063615;28;20282;-43
2022/05/13 04:56:39;;;;;;;3.90;2.33;;;12.10;99.90;;;;;;5068235;28;20513;-42
2022/05/13 04:59:05;;;;;;;8.33;3.23;;;12.20;99.90;;;;;;5067127;28;20189;-41
2022/05/13 05:01:31;;;;;;;4.93;2.73;;;12.10;99.90;;;;;;5067110;28;20435;-39
2022/05/13 05:03:57;;;;;;;5.40;2.43;;;12.10;99.90;;;;;;5069494;28;20183;-42
2022/05/13 05:06:23;;;;;;;4.43;2.00;;;12.10;99.90;;;;;;5062286;28;21016;-41
2022/05/13 05:08:50;;;;;;;5.07;2.40;;;12.10;99.90;;;;;;5058051;28;20436;-41
2022/05/13 05:11:16;;;;;;;3.20;2.43;;;12.10;99.90;;;;;;5066205;28;20421;-42
2022/05/13 05:13:48;;;;;;;4.90;2.83;;;12.20;99.90;;;;;;5069320;28;20485;-42
2022/05/13 05:16:15;;;;;;;4.30;2.83;;;12.20;99.90;;;;;;5068437;28;20498;-42
2022/05/13 05:18:41;;;;;;;4.50;2.47;;;12.30;99.90;;;;;;5069485;28;20450;-42
2022/05/13 05:21:09;;;;;;;5.60;2.60;;;12.20;99.90;;;;;;5067993;28;20447;-42
2022/05/13 05:23:38;;;;;;;5.53;3.23;;;12.20;99.90;;;;;;5061159;28;20432;-42
2022/05/13 05:26:04;;;;;;;7.63;3.50;;;12.30;99.90;;;;;;5061408;28;20455;-41
2022/05/13 05:28:30;;;;;;;7.47;2.77;;;12.30;99.90;;;;;;5069271;28;20481;-42
2022/05/13 05:31:00;;;;;;;4.13;2.63;;;12.50;99.90;;;;;;5068391;28;20518;-42
2022/05/13 05:33:25;;;;;;;7.23;2.57;;;12.50;99.90;;;;;;5069132;28;20451;-43
2022/05/13 05:35:51;;;;;;;7.40;3.00;;;12.50;99.90;;;;;;5069752;28;20434;-42
2022/05/13 05:38:17;;;;;;;4.80;3.00;;;12.50;99.90;;;;;;5071847;28;20185;-42
2022/05/13 05:40:43;;;;;;;9.10;3.23;;;12.60;99.90;;;;;;5059479;28;20173;-42
2022/05/13 05:43:15;;;;;;;6.30;3.40;;;12.70;99.90;;;;;;5062161;28;20219;-42
2022/05/13 05:45:41;;;;;;;7.90;3.23;;;12.80;99.90;;;;;;5066534;28;20423;-42
2022/05/13 05:48:09;;;;;;;6.37;2.90;;;12.90;99.90;;;;;;5068743;28;20423;-42
2022/05/13 05:50:35;;;;;;;6.60;3.30;;;12.90;99.90;;;;;;5068333;28;20419;-42
2022/05/13 05:53:01;;;;;;;4.93;3.50;;;12.90;99.90;;;;;;5067637;28;20463;-42
2022/05/13 05:58:15;;;;;;;4.83;2.60;;;13.00;99.90;;;;;;5072502;28;20462;-42
2022/05/13 06:00:47;;;;;;;5.30;3.23;;;13.00;99.90;;;;;;5068400;28;20431;-42
2022/05/13 06:03:13;;;;;;;7.83;3.20;;;13.10;99.90;;;;;;5064091;28;20488;-42
2022/05/13 06:05:39;;;;;;;3.90;2.90;;;13.00;99.90;;;;;;5066952;28;20427;-43
2022/05/13 06:08:05;;;;;;;9.03;3.27;;;13.00;99.90;;;;;;5071874;28;20429;-42
2022/05/13 06:10:32;;;;;;;10.27;4.10;;;13.10;99.90;;;;;;5062604;28;20466;-42
2022/05/13 06:12:58;;;;;;;4.80;3.27;;;13.20;99.90;;;;;;5073389;28;20508;-42
2022/05/13 06:15:24;;;;;;;7.60;3.57;;;13.10;99.90;;;;;;5081274;28;20958;-42
2022/05/13 06:17:52;;;;;;;10.20;3.43;;;13.10;99.90;;;;;;5083557;28;21200;-41
2022/05/13 06:20:25;;;;;;;6.97;2.90;;;13.20;99.90;;;;;;5087743;28;20415;-42
2022/05/13 06:22:51;;;;;;;5.20;3.07;;;13.50;99.90;;;;;;5078174;28;20841;-42
2022/05/13 06:25:19;;;;;;;7.33;4.80;;;13.80;99.90;;;;;;5067108;28;20431;-42
2022/05/13 06:27:45;;;;;;;8.43;3.40;;;14.10;99.90;;;;;;5066465;28;20817;-42
2022/05/13 06:30:23;;;;;;;7.23;3.67;;;14.40;99.90;;;;;;5066472;28;20509;-42
2022/05/13 06:32:49;;;;;;;7.53;3.43;;;14.80;99.90;;;;;;5069317;28;20477;-40
2022/05/13 06:35:15;;;;;;;10.07;4.23;;;14.90;99.90;;;;;;5072528;28;20427;-42
2022/05/13 06:37:41;;;;;;;6.13;3.33;;;15.10;99.90;;;;;;5081115;28;20172;-42
2022/05/13 06:40:07;;;;;;;6.03;3.60;;;15.10;99.90;;;;;;5070400;28;20430;-42
2022/05/13 06:42:33;;;;;;;7.83;4.00;;;15.00;99.90;;;;;;5078596;28;20177;-42
2022/05/13 06:44:59;;;;;;;6.57;3.83;;;15.20;99.90;;;;;;5072034;28;20496;-42
2022/05/13 06:47:24;;;;;;;9.23;4.10;;;15.20;99.90;;;;;;5072190;28;20185;-42
2022/05/13 06:49:50;;;;;;;6.20;3.50;;;15.30;99.90;;;;;;5078622;28;20185;-42
2022/05/13 06:52:16;;;;;;;5.33;3.70;;;15.40;99.90;;;;;;5084503;28;20193;-42
2022/05/13 06:54:42;;;;;;;4.97;3.30;;;15.40;99.90;;;;;;5063003;28;20259;-42
2022/05/13 06:57:10;;;;;;;6.50;3.00;;;15.50;99.90;;;;;;5072021;28;20201;-42
2022/05/13 06:59:36;;;;;;;7.60;3.70;;;15.70;99.90;;;;;;5070459;28;20961;-42
2022/05/13 07:02:02;;;;;;;6.07;3.20;;;15.80;99.90;;;;;;5065565;28;20466;-42
2022/05/13 07:04:27;;;;;;;6.87;3.13;;;16.00;99.90;;;;;;5077995;28;20477;-42
2022/05/13 07:06:53;;;;;;;5.80;3.20;;;16.10;99.90;;;;;;5071841;28;20185;-42
2022/05/13 07:09:19;;;;;;;8.60;3.40;;;16.20;99.90;;;;;;5063447;28;20285;-42
2022/05/13 07:11:44;;;;;;;4.70;2.83;;;16.10;99.90;;;;;;5064348;28;20884;-42
2022/05/13 07:14:11;;;;;;;5.70;3.17;;;16.10;99.90;;;;;;5069831;28;20236;-42
2022/05/13 07:16:37;;;;;;;6.43;3.27;;;16.00;99.90;;;;;;5070435;28;20196;-42
2022/05/13 07:19:03;;;;;;;8.90;4.00;;;16.10;99.90;;;;;;5071498;28;20420;-42
2022/05/13 07:21:29;;;;;;;8.10;2.70;;;16.10;99.90;;;;;;5066702;28;20929;-42
2022/05/13 07:23:55;;;;;;;6.60;3.47;;;16.10;99.90;;;;;;5064490;28;20443;-42
2022/05/13 07:26:20;;;;;;;3.20;2.70;;;16.10;99.90;;;;;;5060877;28;20190;-42
2022/05/13 07:28:46;;;;;;;5.20;2.87;;;16.10;99.90;;;;;;5062430;28;20197;-42
2022/05/13 07:31:12;;;;;;;4.20;2.73;;;16.10;99.90;;;;;;5068874;28;20234;-42
2022/05/13 07:33:37;;;;;;;5.00;3.10;;;16.10;99.90;;;;;;5069587;28;20354;-42
2022/05/13 07:36:04;;;;;;;4.50;2.70;;;16.10;99.90;;;;;;5071271;28;20196;-42
2022/05/13 07:38:31;;;;;;;9.40;3.10;;;16.20;99.90;;;;;;5071930;28;20235;-42
2022/05/13 07:41:16;;;;;;;6.67;3.83;;;16.20;99.90;;;;;;5061601;28;20441;-42
2022/05/13 07:43:43;;;;;;;8.23;2.80;;;16.20;99.90;;;;;;5070653;28;20493;-42
2022/05/13 07:46:09;;;;;;;5.20;2.67;;;16.20;99.90;;;;;;5071258;28;20443;-42
2022/05/13 07:48:37;;;;;;;7.50;2.87;;;16.10;99.90;;;;;;5071179;28;20435;-42
2022/05/13 07:51:02;;;;;;;9.57;3.07;;;16.20;99.90;;;;;;5070627;28;20514;-42
2022/05/13 07:53:28;;;;;;;5.40;2.97;;;16.00;99.90;;;;;;5070913;28;20558;-42
2022/05/13 07:55:54;;;;;;;5.03;3.03;;;16.00;99.90;;;;;;5057805;28;20304;-42
2022/05/13 07:58:20;;;;;;;7.90;4.40;;;16.00;99.90;;;;;;5070667;28;20181;-42
2022/05/13 08:00:46;;;;;;;5.80;2.60;;;16.10;99.90;;;;;;5070564;28;20989;-42
2022/05/13 08:03:14;;;;;;;7.80;2.77;;;16.10;99.90;;;;;;5070576;28;20220;-42
2022/05/13 08:05:46;;;;;;;6.67;2.70;;;16.20;99.90;;;;;;5070867;28;20181;-42
2022/05/13 08:08:17;;;;;;;6.03;2.50;;;16.20;99.90;;;;;;5070349;28;20431;-42
2022/05/13 08:10:49;;;;;;;2.43;1.93;;;16.20;99.90;;;;;;5058115;28;20447;-42
2022/05/13 08:13:15;;;;;;;3.57;2.23;;;16.30;99.90;;;;;;5069158;28;20544;-42
2022/05/13 08:15:41;;;;;;;5.07;2.60;;;16.40;99.90;;;;;;5070732;28;20428;-42
2022/05/13 08:18:07;;;;;;;7.37;2.40;;;16.50;99.90;;;;;;5070461;28;20193;-42
2022/05/13 08:20:33;;;;;;;8.00;2.53;;;16.50;99.90;;;;;;5085349;28;20438;-42
2022/05/13 08:22:59;;;;;;;7.23;3.33;;;16.60;99.90;;;;;;5070310;28;20193;-42
2022/05/13 08:25:25;;;;;;;6.13;2.83;;;16.50;99.90;;;;;;5061321;28;20626;-42
2022/05/13 08:27:50;;;;;;;11.53;2.77;;;16.50;99.90;;;;;;5070277;28;20586;-42
2022/05/13 08:30:17;;;;;;;6.77;2.37;;;16.40;99.90;;;;;;5068308;28;20478;-42
2022/05/13 08:32:43;;;;;;;7.03;3.20;;;16.40;99.90;;;;;;5070075;28;20205;-42
2022/05/13 08:35:10;;;;;;;10.20;3.27;;;16.50;99.90;;;;;;5069140;28;20450;-42
2022/05/13 08:37:51;;;;;;;4.20;2.70;;;16.50;99.90;;;;;;5070448;28;20506;-42
2022/05/13 08:40:47;;;;;;;11.97;3.00;;;16.60;99.90;;;;;;5068054;28;20929;-42
2022/05/13 08:43:16;;;;;;;4.60;2.67;;;16.60;99.90;;;;;;5065378;28;20753;-43
2022/05/13 08:45:54;;;;;;;5.60;3.07;;;16.70;99.90;;;;;;5069817;28;20447;-42
2022/05/13 08:48:30;;;;;;;3.97;2.10;;;16.80;99.90;;;;;;5072336;28;20531;-42
2022/05/13 08:51:18;;;;;;;4.63;2.60;;;16.80;99.90;;;;;;5089633;28;20434;-42
2022/05/13 08:53:53;;;;;;;5.33;2.63;;;16.70;99.90;;;;;;5090079;28;20458;-42
2022/05/13 08:56:29;;;;;;;4.50;2.30;;;16.80;99.90;;;;;;5058121;28;20462;-42
2022/05/13 08:58:58;;;;;;;6.27;2.80;;;16.80;99.90;;;;;;5069825;28;20433;-41
2022/05/13 09:01:28;;;;;;;5.53;3.03;;;16.80;99.90;;;;;;5068905;28;20468;-42
2022/05/13 09:04:09;;;;;;;7.83;3.33;;;16.80;99.90;;;;;;5069534;28;20432;-42
2022/05/13 09:07:00;;;;;;;4.30;2.60;;;16.80;99.90;;;;;;5068796;28;20522;-42
2022/05/13 09:09:26;;;;;;;7.10;3.43;;;16.90;99.90;;;;;;5066940;28;20446;-42
2022/05/13 09:12:17;;;;;;;3.60;2.90;;;17.10;99.90;;;;;;5060729;28;20431;-42
2022/05/13 09:14:48;;;;;;;5.17;3.10;;;17.30;99.90;;;;;;5068694;28;20303;-42
2022/05/13 09:17:40;;;;;;;6.37;2.97;;;17.40;99.90;;;;;;5069259;28;20434;-42
2022/05/13 09:20:13;;;;;;;4.80;2.60;;;17.60;99.90;;;;;;5068542;28;20893;-42
2022/05/13 09:22:45;;;;;;;4.60;2.50;;;17.70;99.90;;;;;;5067502;28;20424;-42
2022/05/13 09:25:24;;;;;;;5.80;2.10;;;17.70;97.80;;;;;;5061926;28;21145;-42
2022/05/13 09:28:11;;;;;;;3.83;1.80;;;17.80;97.40;;;;;;5082659;28;20577;-42
2022/05/13 09:30:55;;;;;;;3.83;2.30;;;18.00;97.20;;;;;;5066631;28;21143;-42
2022/05/13 09:33:20;;;;;;;7.63;2.77;;;18.10;97.00;;;;;;5067891;28;20462;-42
2022/05/13 09:35:48;;;;;;;3.40;2.20;;;18.40;98.20;;;;;;5068384;28;20423;-42
2022/05/13 09:38:19;;;;;;;5.77;2.07;;;18.50;96.70;;;;;;5068856;28;20550;-42
2022/05/13 09:41:00;;;;;;;2.83;2.17;;;18.50;95.90;;;;;;5058519;28;20855;-42
2022/05/13 09:43:36;;;;;;;2.50;2.00;;;18.60;95.50;;;;;;5068762;28;20431;-42
2022/05/13 09:46:08;;;;;;;2.40;1.83;;;18.70;96.50;;;;;;5083807;28;20488;-42
2022/05/13 09:48:37;;;;;;;4.80;2.40;;;18.80;95.70;;;;;;5068527;28;20441;-41
2022/05/13 09:51:32;;;;;;;4.40;2.23;;;19.00;94.40;;;;;;5068400;28;20514;-42
2022/05/13 09:54:16;;;;;;;3.87;2.17;;;19.10;94.10;;;;;;5084368;28;20466;-42
2022/05/13 09:56:48;;;;;;;4.83;2.80;;;19.00;94.30;;;;;;5055880;28;20466;-42
2022/05/13 09:59:22;;;;;;;7.33;3.20;;;19.00;94.40;;;;;;5062474;28;20465;-42
2022/05/13 10:01:48;;;;;;;5.93;3.33;;;18.80;93.40;;;;;;5068035;28;20423;-42
2022/05/13 10:04:26;;;;;;;6.20;2.80;;;18.70;93.70;;;;;;5067549;28;20431;-42
2022/05/13 10:07:08;;;;;;;4.57;2.77;;;18.60;94.20;;;;;;5057475;28;20450;-42
2022/05/13 10:15:38;;;;;;;4.30;2.43;;;19.00;93.90;;;;;;5065725;28;20430;-42
2022/05/13 10:18:31;;;;;;;3.43;2.00;;;19.10;94.10;;;;;;5064886;28;20419;-42
2022/05/13 10:21:12;;;;;;;3.20;2.83;;;18.90;95.00;;;;;;5070589;28;20423;-42
2022/05/13 10:24:12;;;;;;;5.57;3.40;;;19.00;94.50;;;;;;5072374;28;20447;-42
2022/05/13 10:26:41;;;;;;;4.40;3.20;;;18.90;93.50;;;;;;5058945;28;20439;-42
2022/05/13 10:29:45;;;;;;;7.03;3.07;;;18.60;94.20;;;;;;5072413;28;20415;-42
2022/05/13 10:32:25;;;;;;;3.60;3.30;;;18.40;93.90;;;;;;5070049;28;20422;-42
2022/05/13 10:34:54;;;;;;;3.80;2.80;;;18.20;93.60;;;;;;5065556;28;20427;-42
2022/05/13 10:37:34;;;;;;;3.43;2.73;;;18.10;93.80;;;;;;5072187;28;20418;-42
2022/05/13 10:40:07;;;;;;;5.97;2.90;;;17.90;94.50;;;;;;5079716;28;20415;-42
2022/05/13 10:42:43;;;;;;;3.83;2.50;;;17.60;94.90;;;;;;5062535;28;20817;-42
2022/05/13 10:45:22;;;;;;;3.90;2.90;;;17.60;95.00;;;;;;5067672;28;20415;-42
2022/05/13 10:48:06;;;;;;;4.80;2.60;;;17.60;95.10;;;;;;5072171;28;20423;-42
2022/05/13 10:50:56;;;;;;;4.33;2.50;;;17.60;95.40;;;;;;5086696;28;20422;-42
2022/05/13 10:53:35;;;;;;;4.13;2.33;;;17.80;96.20;;;;;;5074808;28;20458;-42
2022/05/13 10:56:23;;;;;;;4.80;2.23;;;18.10;97.00;;;;;;5066411;28;20439;-42
2022/05/13 10:59:10;;;;;;;3.73;2.67;;;18.30;96.30;;;;;;5070220;28;20419;-42
2022/05/13 11:01:57;;;;;;;4.23;2.23;;;18.50;95.90;;;;;;5069625;28;20418;-42
2022/05/13 11:05:00;;;;;;;3.20;2.17;;;18.70;95.00;;;;;;5078234;28;20420;-42
2022/05/13 11:07:46;;;;;;;5.33;2.43;;;18.80;95.10;;;;;;5072674;28;20427;-42
2022/05/13 11:10:33;;;;;;;5.17;3.20;;;18.80;94.70;;;;;;5065888;28;20438;-42
2022/05/13 11:13:36;;;;;;;3.80;2.77;;;18.90;94.40;;;;;;5085486;28;20460;-42
2022/05/13 11:16:25;;;;;;;4.90;2.73;;;18.70;93.90;;;;;;5071599;28;20501;-42
2022/05/13 11:19:17;;;;;;;3.27;2.63;;;18.60;94.30;;;;;;5070754;28;20871;-41
2022/05/13 11:22:08;;;;;;;5.13;2.50;;;18.60;93.40;;;;;;5062052;28;20831;-43
2022/05/13 11:27:46;;;;;;;9.13;4.00;;;18.20;94.50;;;;;;5062978;28;20492;-42
2022/05/13 11:30:21;;;;;;;5.03;3.93;;;18.30;94.70;;;;;;5064182;28;20747;-42
2022/05/13 11:33:18;;;;;;;5.90;3.27;;;18.50;94.90;;;;;;5059093;28;20509;-42
2022/05/13 11:36:04;;;;;;;6.30;5.70;;;18.40;94.80;;;;;;5053219;28;20423;-42
2022/05/13 11:39:11;;;;;;;7.20;3.83;;;18.30;94.80;;;;;;5050388;28;20462;-42
2022/05/13 11:42:24;;;;;;;11.03;7.07;;;18.40;94.80;;;;;;5070485;28;20432;-42
2022/05/13 11:45:09;;;;;;;13.57;11.13;;;18.50;94.80;;;;;;5069429;28;20446;-42
2022/05/13 11:47:59;;;;;;;10.13;9.13;;;18.50;94.50;;;;;;5071345;28;20411;-42
2022/05/13 11:50:27;;;;;;;7.33;3.93;;;18.60;95.10;;;;;;5070554;28;20457;-42
2022/05/13 11:52:57;;;;;;;5.80;3.80;;;18.70;95.00;;;;;;5071023;28;20463;-42
2022/05/13 11:55:41;;;;;;;4.83;4.10;;;18.90;95.00;;;;;;5070880;28;20407;-43
2022/05/13 11:58:08;;;;;;;16.27;11.50;;;19.00;94.30;;;;;;5063471;28;20996;-42
2022/05/13 12:00:38;;;;;;;6.60;4.77;;;19.00;94.10;;;;;;5070377;28;20423;-42
2022/05/13 12:03:24;;;;;;;8.43;5.70;;;19.00;94.60;;;;;;5070761;28;20419;-42
2022/05/13 12:05:58;;;;;;;6.93;4.50;;;19.00;93.80;;;;;;5070386;28;20423;-42
2022/05/13 12:08:55;;;;;;;15.20;10.90;;;19.00;94.50;;;;;;5070779;28;20417;-42
2022/05/13 12:11:40;;;;;;;13.53;11.30;;;19.00;93.10;;;;;;5062487;28;20426;-42
2022/05/13 12:14:24;;;;;;;6.70;5.67;;;18.90;93.50;;;;;;5064822;28;20814;-42
2022/05/13 12:17:19;;;;;;;7.50;4.80;;;18.90;93.80;;;;;;5070790;28;20411;-42
2022/05/13 12:20:13;;;;;;;6.83;5.10;;;19.10;94.00;;;;;;5060641;28;20477;-42
2022/05/13 12:22:52;;;;;;;9.67;8.60;;;19.30;94.00;;;;;;5069144;28;20415;-42
2022/05/13 12:25:26;;;;;;;4.93;4.50;;;19.20;92.70;;;;;;5070200;28;20429;-42
2022/05/13 12:28:04;;;;;;;4.33;3.63;;;19.00;93.10;;;;;;5058395;28;20840;-42
2022/05/13 12:30:39;;;;;;;5.93;5.33;;;18.80;93.80;;;;;;5084833;28;20419;-42
2022/05/13 12:33:24;;;;;;;8.13;4.17;;;18.90;93.70;;;;;;5069564;28;21202;-42
2022/05/13 12:39:03;;;;;;;4.93;4.10;;;19.30;93.90;;;;;;5073498;28;20505;-42
2022/05/13 12:41:44;;;;;;;5.70;4.77;;;19.30;93.20;;;;;;5074235;28;20467;-42
2022/05/13 12:44:21;;;;;;;4.80;4.10;;;19.20;92.50;;;;;;5063037;28;20523;-42
2022/05/13 12:46:53;;;;;;;7.73;4.97;;;19.20;92.70;;;;;;5069964;28;20422;-40
2022/05/13 12:49:39;;;;;;;6.17;5.53;;;19.20;92.90;;;;;;5069976;28;20427;-41
2022/05/13 12:52:14;;;;;;;7.90;4.97;;;19.30;93.60;;;;;;5056897;28;20422;-42
2022/05/13 12:54:51;;;;;;;6.40;4.60;;;19.30;93.40;;;;;;5069920;28;20463;-42
2022/05/13 12:57:38;;;;;;;4.90;4.50;;;19.50;93.80;;;;;;5056833;28;20479;-42
2022/05/13 13:00:08;;;;;;;5.00;4.53;;;19.70;93.60;;;;;;5068726;28;20423;-42
2022/05/13 13:02:38;;;;;;;7.80;6.20;;;19.70;92.60;;;;;;5068299;28;20923;-42
2022/05/13 13:05:12;;;;;;;5.33;4.80;;;19.70;91.20;;;;;;5069591;28;20415;-42
2022/05/13 13:07:38;;;;;;;6.13;5.40;;;19.70;92.50;;;;;;5069519;28;20796;-42
2022/05/13 13:10:05;;;;;;;5.70;5.10;;;19.90;92.30;;;;;;5067271;28;20427;-41
2022/05/13 13:12:36;;;;;;;6.60;6.00;;;20.00;92.50;;;;;;5054745;28;20428;-42
2022/05/13 13:15:13;;;;;;;8.00;6.20;;;20.00;91.70;;;;;;5064228;28;20472;-42
2022/05/13 13:17:56;;;;;;;9.50;5.53;;;19.90;90.90;;;;;;5063976;28;20425;-42
2022/05/13 13:20:24;;;;;;;6.50;5.90;;;19.80;90.70;;;;;;5067714;28;20427;-42
2022/05/13 13:23:06;;;;;;;5.93;5.33;;;19.70;91.80;;;;;;5067694;28;20779;-41
2022/05/13 13:25:48;;;;;;;7.63;5.60;;;19.60;90.90;;;;;;5068347;28;20424;-41
2022/05/13 13:28:32;;;;;;;7.80;5.23;;;19.60;91.50;;;;;;5061751;28;20457;-42
2022/05/13 13:31:01;;;;;;;5.40;4.90;;;19.70;92.30;;;;;;5068460;28;20451;-42
2022/05/13 13:33:33;;;;;;;7.53;5.10;;;19.70;92.10;;;;;;5067172;28;20471;-42
2022/05/13 13:36:13;;;;;;;9.40;6.60;;;19.70;92.20;;;;;;5069257;28;20976;-43